createdAt,value
2023-03-04T00:00:20.907Z,87.53
2023-03-04T00:03:09.059Z,87.65
2023-03-04T00:05:37.511Z,87.76
2023-03-04T00:08:05.156Z,87.84
2023-03-04T00:10:32.834Z,87.65
2023-03-04T00:13:00.359Z,87.73
2023-03-04T00:15:27.923Z,87.78
2023-03-04T00:17:55.980Z,87.88
2023-03-04T00:20:23.557Z,87.84
2023-03-04T00:22:51.075Z,88.04
2023-03-04T00:25:18.648Z,88.01
2023-03-04T00:27:46.227Z,87.94
2023-03-04T00:30:13.863Z,87.82
2023-03-04T00:32:41.634Z,87.94
2023-03-04T00:35:09.502Z,88.01
2023-03-04T00:37:37.037Z,88.00
2023-03-04T00:40:05.288Z,88.04
2023-03-04T00:42:32.906Z,88.02
2023-03-04T00:45:00.467Z,88.18
2023-03-04T00:47:28.059Z,88.11
2023-03-04T00:49:55.657Z,88.18
2023-03-04T00:52:23.222Z,88.25
2023-03-04T00:54:50.745Z,88.35
2023-03-04T00:57:18.459Z,88.36
2023-03-04T00:59:46.041Z,88.44
2023-03-04T01:02:13.839Z,88.36
2023-03-04T01:04:41.626Z,88.43
2023-03-04T01:07:09.475Z,88.49
2023-03-04T01:09:37.068Z,88.21
2023-03-04T01:12:04.718Z,88.28
2023-03-04T01:14:32.457Z,88.06
2023-03-04T01:17:00.058Z,88.31
2023-03-04T01:19:27.649Z,88.04
2023-03-04T01:21:55.194Z,88.02
2023-03-04T01:24:22.772Z,88.12
2023-03-04T01:26:50.309Z,88.23
2023-03-04T01:29:17.892Z,88.21
2023-03-04T01:31:45.402Z,88.26
2023-03-04T01:34:12.970Z,88.17
2023-03-04T01:36:40.545Z,87.83
2023-03-04T01:39:08.098Z,87.79
2023-03-04T01:41:35.719Z,87.88
2023-03-04T01:44:03.424Z,87.62
2023-03-04T01:46:31.997Z,87.64
2023-03-04T01:49:00.066Z,87.52
2023-03-04T01:51:27.756Z,87.42
2023-03-04T01:53:55.956Z,87.31
2023-03-04T01:56:38.030Z,87.30
2023-03-04T01:59:23.085Z,87.43
2023-03-04T02:01:56.111Z,87.24
2023-03-04T02:04:32.743Z,87.34
2023-03-04T02:07:01.927Z,87.26
2023-03-04T02:09:31.408Z,87.13
2023-03-04T02:11:59.974Z,87.21
2023-03-04T02:14:27.571Z,87.25
2023-03-04T02:16:55.205Z,87.14
2023-03-04T02:19:56.394Z,87.42
2023-03-04T02:22:24.074Z,87.15
2023-03-04T02:25:00.380Z,87.25
2023-03-04T02:27:28.053Z,86.89
2023-03-04T02:29:55.682Z,87.11
2023-03-04T02:32:23.369Z,87.07
2023-03-04T02:34:51.163Z,86.92
2023-03-04T02:37:20.045Z,87.09
2023-03-04T02:39:49.270Z,86.94
2023-03-04T02:42:17.196Z,86.91
2023-03-04T02:44:46.212Z,86.77
2023-03-04T02:47:16.166Z,86.80
2023-03-04T02:49:44.467Z,86.80
2023-03-04T02:52:19.317Z,86.97
2023-03-04T02:54:46.892Z,86.95
2023-03-04T02:57:15.407Z,87.22
2023-03-04T02:59:43.337Z,87.51
2023-03-04T03:02:10.972Z,87.32
2023-03-04T03:04:39.898Z,87.52
2023-03-04T03:07:07.963Z,87.56
2023-03-04T03:09:35.629Z,87.42
2023-03-04T03:12:03.298Z,87.51
2023-03-04T03:14:30.833Z,87.15
2023-03-04T03:16:58.473Z,87.11
2023-03-04T03:19:26.104Z,87.08
2023-03-04T03:21:53.671Z,87.28
2023-03-04T03:24:21.231Z,87.30
2023-03-04T03:26:48.853Z,87.37
2023-03-04T03:29:16.562Z,87.51
2023-03-04T03:31:44.108Z,87.51
2023-03-04T03:34:11.621Z,87.67
2023-03-04T03:36:39.175Z,87.68
2023-03-04T03:39:06.775Z,87.65
2023-03-04T03:41:34.356Z,87.67
2023-03-04T03:44:01.926Z,87.60
2023-03-04T03:46:29.576Z,87.50
2023-03-04T03:48:57.136Z,87.71
2023-03-04T03:51:24.740Z,87.75
2023-03-04T03:53:52.466Z,87.79
2023-03-04T03:56:20.000Z,87.65
2023-03-04T03:58:47.555Z,87.83
2023-03-04T04:01:15.129Z,87.78
2023-03-04T04:03:42.840Z,88.12
2023-03-04T04:06:10.380Z,88.22
2023-03-04T04:08:38.094Z,88.35
2023-03-04T04:11:05.654Z,88.29
2023-03-04T04:13:33.250Z,88.36
2023-03-04T04:16:00.875Z,88.60
2023-03-04T04:18:28.779Z,88.65
2023-03-04T04:20:56.364Z,88.72
2023-03-04T04:23:23.966Z,88.91
2023-03-04T04:25:51.514Z,88.92
2023-03-04T04:28:19.042Z,89.20
2023-03-04T04:30:46.635Z,89.43
2023-03-04T04:33:14.248Z,89.63
2023-03-04T04:35:42.110Z,89.38
2023-03-04T04:38:10.607Z,89.65
2023-03-04T04:40:38.232Z,89.64
2023-03-04T04:43:05.798Z,89.80
2023-03-04T04:45:34.416Z,89.68
2023-03-04T04:48:02.019Z,89.68
2023-03-04T04:50:32.514Z,89.64
2023-03-04T04:53:00.699Z,89.57
2023-03-04T04:55:28.288Z,89.52
2023-03-04T04:57:55.834Z,89.50
2023-03-04T05:00:23.333Z,89.34
2023-03-04T05:02:50.918Z,89.53
2023-03-04T05:05:18.687Z,89.28
2023-03-04T05:07:46.219Z,89.40
2023-03-04T05:10:13.786Z,89.31
2023-03-04T05:12:41.466Z,88.92
2023-03-04T05:15:09.324Z,88.84
2023-03-04T05:17:36.926Z,88.79
2023-03-04T05:20:04.816Z,88.61
2023-03-04T05:22:32.537Z,88.49
2023-03-04T05:25:00.124Z,88.49
2023-03-04T05:27:27.675Z,88.05
2023-03-04T05:29:55.173Z,87.80
2023-03-04T05:32:22.753Z,87.66
2023-03-04T05:34:50.251Z,87.32
2023-03-04T05:37:17.799Z,86.88
2023-03-04T05:39:45.407Z,86.30
2023-03-04T05:42:12.958Z,86.36
2023-03-04T05:44:40.506Z,86.45
2023-03-04T05:47:08.085Z,86.14
2023-03-04T05:49:35.651Z,86.08
2023-03-04T05:52:03.382Z,86.06
2023-03-04T05:54:30.892Z,86.03
2023-03-04T05:56:58.444Z,85.91
2023-03-04T05:59:26.109Z,85.88
2023-03-04T06:01:53.698Z,85.99
2023-03-04T06:04:21.309Z,85.92
2023-03-04T06:06:48.906Z,85.72
2023-03-04T06:09:16.484Z,85.68
2023-03-04T06:11:44.079Z,85.50
2023-03-04T06:14:11.613Z,85.35
2023-03-04T06:16:39.194Z,85.43
2023-03-04T06:19:06.727Z,85.47
2023-03-04T06:21:34.469Z,84.88
2023-03-04T06:24:01.994Z,84.83
2023-03-04T06:26:29.517Z,85.15
2023-03-04T06:28:57.139Z,85.23
2023-03-04T06:31:24.890Z,84.97
2023-03-04T06:33:52.473Z,84.96
2023-03-04T06:36:20.024Z,84.74
2023-03-04T06:38:47.595Z,84.44
2023-03-04T06:41:15.307Z,84.50
2023-03-04T06:43:43.044Z,84.36
2023-03-04T06:46:10.668Z,84.51
2023-03-04T06:48:38.316Z,84.46
2023-03-04T06:51:10.699Z,84.25
2023-03-04T06:53:39.344Z,84.23
2023-03-04T06:56:08.080Z,84.54
2023-03-04T06:58:36.298Z,84.42
2023-03-04T07:01:30.279Z,84.35
2023-03-04T07:03:58.395Z,84.05
2023-03-04T07:06:27.486Z,84.01
2023-03-04T07:08:55.776Z,83.78
2023-03-04T07:11:23.921Z,83.83
2023-03-04T07:13:52.003Z,83.85
2023-03-04T07:16:22.665Z,83.94
2023-03-04T07:18:50.321Z,83.94
2023-03-04T07:21:18.447Z,83.82
2023-03-04T07:23:47.338Z,83.83
2023-03-04T07:26:14.949Z,83.08
2023-03-04T07:28:43.146Z,83.15
2023-03-04T07:31:22.863Z,82.86
2023-03-04T07:33:51.953Z,83.14
2023-03-04T07:36:19.508Z,83.07
2023-03-04T07:38:49.077Z,82.62
2023-03-04T07:41:17.931Z,82.35
2023-03-04T07:43:45.607Z,82.39
2023-03-04T07:46:14.043Z,82.48
2023-03-04T07:48:43.145Z,81.94
2023-03-04T07:51:13.763Z,81.61
2023-03-04T07:53:43.385Z,81.72
2023-03-04T07:56:17.182Z,81.50
2023-03-04T07:58:45.317Z,81.55
2023-03-04T08:01:37.205Z,81.50
2023-03-04T08:04:06.969Z,81.46
2023-03-04T08:06:35.277Z,80.99
2023-03-04T08:09:06.393Z,81.00
2023-03-04T08:11:36.037Z,80.72
2023-03-04T08:14:03.795Z,79.86
2023-03-04T08:16:31.557Z,79.40
2023-03-04T08:19:04.215Z,78.39
2023-03-04T08:21:32.628Z,78.40
2023-03-04T08:24:01.726Z,78.86
2023-03-04T08:26:32.221Z,78.79
2023-03-04T08:29:01.882Z,78.51
2023-03-04T08:31:30.785Z,78.53
2023-03-04T08:33:58.403Z,77.89
2023-03-04T08:36:26.066Z,77.86
2023-03-04T08:38:53.604Z,77.80
2023-03-04T08:41:21.170Z,77.95
2023-03-04T08:43:48.791Z,77.94
2023-03-04T08:46:16.346Z,78.05
2023-03-04T08:48:44.125Z,77.72
2023-03-04T08:51:14.464Z,77.58
2023-03-04T08:53:42.095Z,77.47
2023-03-04T08:56:10.247Z,77.54
2023-03-04T08:58:38.161Z,77.64
2023-03-04T09:01:09.302Z,77.46
2023-03-04T09:03:37.308Z,77.18
2023-03-04T09:06:05.812Z,77.28
2023-03-04T09:08:34.364Z,76.85
2023-03-04T09:11:02.361Z,76.98
2023-03-04T09:13:31.072Z,77.00
2023-03-04T09:15:58.830Z,76.85
2023-03-04T09:18:27.122Z,76.86
2023-03-04T09:20:55.232Z,76.82
2023-03-04T09:23:23.068Z,76.97
2023-03-04T09:25:50.754Z,76.82
2023-03-04T09:28:19.045Z,77.15
2023-03-04T09:30:46.883Z,77.12
2023-03-04T09:33:14.770Z,77.20
2023-03-04T09:35:43.192Z,77.36
2023-03-04T09:38:10.873Z,77.58
2023-03-04T09:40:42.144Z,77.45
2023-03-04T09:43:39.833Z,77.62
2023-03-04T09:46:32.880Z,77.51
2023-03-04T09:49:00.582Z,77.79
2023-03-04T09:51:44.231Z,77.91
2023-03-04T09:55:04.817Z,77.94
2023-03-04T09:57:52.003Z,78.02
2023-03-04T10:00:19.575Z,78.01
2023-03-04T10:03:05.939Z,77.87
2023-03-04T10:05:39.280Z,77.86
2023-03-04T10:08:31.967Z,77.98
2023-03-04T10:11:01.678Z,78.02
2023-03-04T10:13:33.546Z,78.13
2023-03-04T10:16:03.664Z,77.95
2023-03-04T10:18:40.445Z,78.08
2023-03-04T10:21:13.892Z,77.94
2023-03-04T10:23:41.629Z,77.95
2023-03-04T10:26:18.044Z,77.98
2023-03-04T10:28:45.597Z,78.19
2023-03-04T10:31:35.261Z,78.42
2023-03-04T10:34:04.974Z,78.51
2023-03-04T10:36:39.913Z,78.58
2023-03-04T10:39:16.825Z,78.43
2023-03-04T10:41:53.793Z,78.44
2023-03-04T10:44:21.464Z,78.74
2023-03-04T10:46:50.144Z,78.68
2023-03-04T10:49:19.764Z,78.75
2023-03-04T10:52:33.767Z,78.66
2023-03-04T10:55:05.612Z,79.05
2023-03-04T10:57:37.403Z,79.35
2023-03-04T11:00:35.198Z,79.26
2023-03-04T11:03:21.242Z,79.36
2023-03-04T11:05:48.834Z,79.31
2023-03-04T11:08:22.395Z,79.31
2023-03-04T11:10:50.710Z,79.33
2023-03-04T11:13:21.603Z,79.65
2023-03-04T11:15:58.468Z,79.35
2023-03-04T11:18:57.676Z,79.67
2023-03-04T11:21:29.791Z,80.28
2023-03-04T11:24:03.158Z,80.34
2023-03-04T11:26:44.969Z,80.51
2023-03-04T11:30:03.413Z,80.75
2023-03-04T11:32:40.154Z,81.25
2023-03-04T11:35:34.769Z,81.10
2023-03-04T11:38:08.905Z,81.52
2023-03-04T11:40:44.336Z,81.56
2023-03-04T11:43:25.217Z,81.55
2023-03-04T11:45:58.699Z,81.86
2023-03-04T11:49:03.961Z,82.07
2023-03-04T11:52:08.925Z,82.11
2023-03-04T11:54:56.934Z,81.92
2023-03-04T11:57:41.912Z,81.87
2023-03-04T12:00:27.787Z,81.82
2023-03-04T12:03:04.192Z,81.63
2023-03-04T12:05:37.402Z,81.56
2023-03-04T12:08:33.194Z,81.39
2023-03-04T12:11:10.143Z,81.21
2023-03-04T12:13:58.752Z,81.03
2023-03-04T12:16:54.602Z,80.89
2023-03-04T12:19:31.807Z,80.46
2023-03-04T12:22:10.780Z,80.59
2023-03-04T12:25:03.156Z,80.14
2023-03-04T12:27:42.830Z,80.12
2023-03-04T12:30:47.475Z,79.50
2023-03-04T12:33:23.989Z,79.21
2023-03-04T12:36:06.585Z,79.27
2023-03-04T12:38:42.604Z,78.92
2023-03-04T12:41:10.094Z,78.74
2023-03-04T12:44:01.270Z,78.44
2023-03-04T12:46:31.882Z,78.11
2023-03-04T12:49:02.081Z,78.12
2023-03-04T12:51:41.421Z,78.14
2023-03-04T12:54:21.343Z,77.94
2023-03-04T12:56:56.697Z,78.10
2023-03-04T12:59:26.701Z,77.81
2023-03-04T13:01:54.231Z,78.25
2023-03-04T13:04:27.433Z,78.31
2023-03-04T13:07:19.552Z,78.26
2023-03-04T13:09:58.734Z,78.06
2023-03-04T13:12:26.312Z,77.99
2023-03-04T13:15:05.815Z,78.27
2023-03-04T13:17:44.084Z,78.11
2023-03-04T13:20:17.576Z,78.16
2023-03-04T13:22:55.460Z,78.33
2023-03-04T13:25:30.666Z,78.31
2023-03-04T13:28:10.396Z,78.38
2023-03-04T13:30:37.907Z,78.30
2023-03-04T13:33:08.502Z,78.25
2023-03-04T13:35:49.020Z,78.20
2023-03-04T13:38:28.727Z,78.35
2023-03-04T13:41:05.223Z,78.34
2023-03-04T13:43:54.574Z,78.14
2023-03-04T13:46:25.273Z,77.98
2023-03-04T13:48:52.805Z,78.15
2023-03-04T13:51:29.776Z,78.40
2023-03-04T13:54:00.842Z,78.22
2023-03-04T13:56:54.363Z,78.46
2023-03-04T13:59:31.114Z,78.31
2023-03-04T14:02:22.313Z,78.52
2023-03-04T14:05:01.181Z,78.20
2023-03-04T14:07:31.801Z,78.36
2023-03-04T14:10:05.320Z,78.38
2023-03-04T14:12:40.288Z,78.49
2023-03-04T14:15:13.920Z,78.58
2023-03-04T14:17:49.497Z,78.68
2023-03-04T14:20:35.057Z,78.64
2023-03-04T14:23:33.234Z,79.03
2023-03-04T14:26:12.760Z,79.21
2023-03-04T14:28:48.912Z,79.56
2023-03-04T14:31:21.826Z,79.40
2023-03-04T14:33:52.135Z,79.65
2023-03-04T14:36:22.555Z,79.50
2023-03-04T14:38:54.616Z,79.29
2023-03-04T14:41:34.900Z,78.93
2023-03-04T14:44:14.665Z,78.85
2023-03-04T14:47:05.971Z,78.85
2023-03-04T14:49:36.869Z,78.65
2023-03-04T14:52:05.453Z,78.65
2023-03-04T14:54:37.674Z,78.24
2023-03-04T14:57:21.274Z,77.73
2023-03-04T14:59:48.933Z,77.52
2023-03-04T15:02:28.888Z,77.40
2023-03-04T15:04:58.713Z,77.30
2023-03-04T15:07:37.517Z,76.85
2023-03-04T15:10:11.212Z,76.77
2023-03-04T15:12:39.035Z,76.32
2023-03-04T15:15:36.585Z,76.33
2023-03-04T15:18:14.588Z,75.74
2023-03-04T15:20:42.341Z,75.33
2023-03-04T15:23:10.337Z,75.19
2023-03-04T15:25:38.179Z,74.92
2023-03-04T15:28:12.482Z,75.13
2023-03-04T15:30:40.149Z,75.37
2023-03-04T15:33:11.012Z,74.91
2023-03-04T15:35:39.509Z,74.86
2023-03-04T15:38:08.407Z,74.58
2023-03-04T15:40:39.247Z,74.63
2023-03-04T15:43:06.969Z,74.86
2023-03-04T15:45:36.984Z,74.38
2023-03-04T15:48:07.041Z,74.60
2023-03-04T15:51:01.770Z,74.64
2023-03-04T15:53:36.924Z,74.58
2023-03-04T15:56:08.171Z,74.61
2023-03-04T15:58:35.874Z,74.55
2023-03-04T16:01:03.888Z,74.50
2023-03-04T16:03:32.183Z,74.31
2023-03-04T16:05:59.891Z,74.69
2023-03-04T16:08:27.993Z,74.68
2023-03-04T16:10:55.598Z,74.82
2023-03-04T16:13:23.992Z,74.82
2023-03-04T16:15:52.011Z,74.96
2023-03-04T16:18:19.893Z,75.04
2023-03-04T16:20:49.553Z,75.25
2023-03-04T16:23:21.782Z,75.02
2023-03-04T16:25:52.572Z,75.03
2023-03-04T16:28:20.163Z,75.21
2023-03-04T16:30:48.704Z,75.29
2023-03-04T16:33:16.345Z,75.21
2023-03-04T16:35:45.367Z,75.41
2023-03-04T16:38:26.713Z,75.21
2023-03-04T16:40:55.635Z,75.26
2023-03-04T16:43:23.921Z,75.39
2023-03-04T16:45:51.793Z,75.27
2023-03-04T16:48:19.492Z,75.12
2023-03-04T16:50:47.138Z,75.28
2023-03-04T16:53:36.315Z,75.24
2023-03-04T16:56:12.796Z,75.08
2023-03-04T16:58:41.760Z,75.08
2023-03-04T17:01:24.384Z,75.38
2023-03-04T17:03:52.619Z,75.22
2023-03-04T17:06:21.196Z,75.34
2023-03-04T17:08:48.954Z,75.15
2023-03-04T17:11:19.251Z,75.34
2023-03-04T17:13:47.307Z,75.54
2023-03-04T17:16:15.479Z,75.20
2023-03-04T17:18:43.296Z,75.42
2023-03-04T17:21:18.418Z,75.43
2023-03-04T17:23:45.936Z,75.43
2023-03-04T17:26:13.559Z,75.59
2023-03-04T17:28:41.341Z,75.55
2023-03-04T17:31:10.547Z,75.70
2023-03-04T17:33:38.914Z,76.25
2023-03-04T17:36:08.062Z,76.53
2023-03-04T17:38:37.084Z,76.95
2023-03-04T17:41:06.469Z,77.47
2023-03-04T17:43:34.268Z,77.81
2023-03-04T17:46:04.388Z,78.01
2023-03-04T17:48:32.518Z,78.23
2023-03-04T17:51:00.247Z,78.15
2023-03-04T17:53:27.880Z,78.36
2023-03-04T17:55:57.594Z,78.17
2023-03-04T17:58:25.183Z,78.15
2023-03-04T18:00:55.083Z,78.35
2023-03-04T18:03:22.642Z,78.23
2023-03-04T18:05:50.201Z,78.35
2023-03-04T18:08:17.755Z,78.87
2023-03-04T18:10:45.397Z,79.48
2023-03-04T18:13:15.947Z,79.76
2023-03-04T18:15:43.683Z,80.06
2023-03-04T18:18:11.254Z,80.33
2023-03-04T18:20:38.762Z,80.50
2023-03-04T18:23:06.335Z,80.80
2023-03-04T18:25:33.942Z,81.10
2023-03-04T18:28:01.829Z,81.01
2023-03-04T18:30:29.557Z,81.20
2023-03-04T18:32:58.595Z,81.22
2023-03-04T18:35:26.224Z,81.20
2023-03-04T18:37:53.835Z,81.45
2023-03-04T18:40:21.404Z,81.40
2023-03-04T18:42:48.945Z,81.42
2023-03-04T18:45:17.910Z,81.34
2023-03-04T18:47:49.886Z,81.37
2023-03-04T18:50:18.090Z,81.25
2023-03-04T18:52:46.335Z,81.18
2023-03-04T18:55:14.230Z,80.96
2023-03-04T18:57:47.560Z,81.01
2023-03-04T19:00:18.444Z,80.86
2023-03-04T19:02:56.639Z,80.86
2023-03-04T19:05:27.733Z,80.69
2023-03-04T19:07:55.528Z,80.62
2023-03-04T19:10:23.276Z,80.57
2023-03-04T19:12:51.559Z,80.37
2023-03-04T19:15:19.295Z,80.43
2023-03-04T19:17:46.884Z,80.58
2023-03-04T19:20:15.622Z,80.47
2023-03-04T19:22:43.981Z,80.47
2023-03-04T19:25:12.049Z,80.50
2023-03-04T19:27:39.703Z,80.33
2023-03-04T19:30:08.012Z,80.46
2023-03-04T19:32:35.565Z,80.41
2023-03-04T19:35:03.220Z,80.21
2023-03-04T19:37:30.900Z,80.10
2023-03-04T19:39:58.440Z,79.97
2023-03-04T19:42:25.963Z,80.13
2023-03-04T19:44:53.608Z,80.18
2023-03-04T19:47:21.172Z,80.04
2023-03-04T19:49:48.752Z,80.40
2023-03-04T19:52:17.781Z,80.36
2023-03-04T19:54:45.385Z,80.45
2023-03-04T19:57:12.897Z,80.45
2023-03-04T19:59:40.466Z,80.57
2023-03-04T20:02:08.070Z,80.42
2023-03-04T20:04:35.707Z,80.48
2023-03-04T20:07:03.277Z,80.42
2023-03-04T20:09:30.891Z,80.51
2023-03-04T20:11:59.548Z,80.48
2023-03-04T20:14:28.028Z,80.49
2023-03-04T20:16:58.682Z,80.64
2023-03-04T20:19:26.510Z,80.67
2023-03-04T20:21:54.462Z,80.83
2023-03-04T20:24:23.535Z,80.95
2023-03-04T20:26:51.791Z,80.88
2023-03-04T20:29:19.434Z,80.86
2023-03-04T20:31:47.142Z,80.90
2023-03-04T20:34:15.134Z,81.04
2023-03-04T20:36:43.082Z,81.06
2023-03-04T20:39:26.963Z,81.05
2023-03-04T20:41:57.139Z,81.08
2023-03-04T20:44:25.101Z,81.23
2023-03-04T20:46:52.864Z,81.15
2023-03-04T20:49:28.204Z,81.32
2023-03-04T20:52:00.906Z,81.36
2023-03-04T20:54:33.363Z,81.35
2023-03-04T20:57:01.242Z,81.44
2023-03-04T20:59:28.796Z,81.23
2023-03-04T21:01:56.574Z,81.23
2023-03-04T21:04:24.381Z,81.22
2023-03-04T21:06:52.492Z,81.30
2023-03-04T21:09:23.011Z,81.48
2023-03-04T21:11:53.344Z,81.58
2023-03-04T21:14:29.922Z,81.53
2023-03-04T21:16:58.518Z,81.65
2023-03-04T21:19:29.134Z,81.17
2023-03-04T21:21:57.873Z,81.38
2023-03-04T21:24:28.692Z,81.73
2023-03-04T21:26:56.872Z,81.81
2023-03-04T21:29:26.209Z,82.08
2023-03-04T21:31:57.513Z,82.13
2023-03-04T21:34:52.321Z,81.81
2023-03-04T21:37:21.067Z,82.09
2023-03-04T21:39:48.693Z,82.08
2023-03-04T21:42:16.511Z,81.88
2023-03-04T21:44:51.895Z,81.65
2023-03-04T21:47:21.026Z,81.52
2023-03-04T21:49:48.898Z,81.40
2023-03-04T21:52:19.007Z,81.51
2023-03-04T21:54:46.927Z,81.46
2023-03-04T21:57:14.650Z,81.55
2023-03-04T21:59:42.397Z,81.62
2023-03-04T22:02:15.868Z,81.56
2023-03-04T22:04:43.883Z,81.65
2023-03-04T22:07:12.006Z,81.62
2023-03-04T22:09:39.786Z,81.62
2023-03-04T22:12:07.492Z,81.45
2023-03-04T22:14:35.026Z,81.53
2023-03-04T22:17:02.738Z,81.77
2023-03-04T22:19:32.018Z,81.59
2023-03-04T22:21:59.636Z,81.42
2023-03-04T22:24:27.422Z,81.34
2023-03-04T22:26:54.970Z,81.41
2023-03-04T22:29:22.546Z,81.28
2023-03-04T22:31:50.138Z,81.30
2023-03-04T22:34:17.784Z,81.25
2023-03-04T22:36:46.837Z,81.46
2023-03-04T22:39:16.721Z,81.27
2023-03-04T22:41:44.314Z,81.34
2023-03-04T22:44:12.040Z,81.27
2023-03-04T22:46:39.727Z,81.88
2023-03-04T22:49:10.999Z,81.76
2023-03-04T22:51:40.633Z,81.73
2023-03-04T22:54:10.842Z,82.13
2023-03-04T22:56:38.343Z,82.39
2023-03-04T22:59:06.367Z,82.16
2023-03-04T23:01:33.931Z,82.12
2023-03-04T23:04:02.221Z,81.88
2023-03-04T23:06:30.049Z,81.95
2023-03-04T23:08:58.918Z,82.17
2023-03-04T23:11:32.405Z,82.27
2023-03-04T23:13:59.967Z,82.25
2023-03-04T23:16:27.563Z,82.15
2023-03-04T23:18:56.234Z,82.07
2023-03-04T23:21:25.723Z,81.98
2023-03-04T23:23:53.282Z,81.94
2023-03-04T23:26:29.963Z,81.96
2023-03-04T23:28:57.932Z,81.82
2023-03-04T23:31:25.662Z,81.89
2023-03-04T23:33:53.440Z,82.11
2023-03-04T23:36:20.986Z,81.87
2023-03-04T23:38:48.745Z,81.89
2023-03-04T23:41:22.621Z,81.84
2023-03-04T23:43:52.809Z,81.89
2023-03-04T23:46:20.856Z,81.85
2023-03-04T23:48:48.716Z,81.76
2023-03-04T23:51:21.968Z,82.01
2023-03-04T23:53:49.638Z,81.82
2023-03-04T23:56:20.314Z,81.67
2023-03-04T23:58:49.082Z,81.79
